Fort Motte, South Carolina
Current Conditions -  °F | °C
As of 7:08 AM on Monday 24 Nov 2014 (Local Time) from KMMT Reporting Station
Overcast Overcast  
Wind Chill: 66°   Ceiling: 700
Heat Index: 66°   Visibility: 10mi
Dew Point: 66°   Wind: 3mph
Humidity: 100%   Direction: 200°SSW
Pressure: 29.83"   Gusts: NA
Location:  33.7122°N, 80.8747°W
Report Text: KMMT 241208Z 20003KT 10SM OVC007 19/19 A2983 RMK AO2A SLP103
Loading
Personal Weather Stations






























Interactive Weather Map New forecast layout! Learn more

10-Day Weather Forecast

Advertisements
Track Severe Weather on mobile